aviador You're here:

ROIG Decoded Metar

ISHIGAKI in JAPAN
Report Time2017-08-18 00:00:00
UTC Time2017-08-18 01:01:01
Flight Rules vfr VFR
Wind110° at 04 kt
W.Decomp.*RWY 04: 1.1 kt HW 3.8 kt RCW
W.Rank110° ranks 23
Current wind is below 110° avg. (8.9)
Visibility9999 m
Phenomena:N/A
Clouds:Few 020 Hf
Expected CloudBase > 2,400 ft AGL from Temp-Dew spread
CeilingNone
Temp31°C (ISA +16)
Dew Point25°C (70% RH)
Heat Index37.6°C
QNH1011 hPa
Density Alt2,339 ft
Elevation23 ft
Report Wrong Elevation
Raw Report
METAR ROIG 180000Z 11004KT 080V150 9999 FEW020 31/25 Q1011=

Extra information for ROIG:More info

Metar Taf Metar & Taf Last 4 Metars F.Rules Stats Wind Profile Meteogram Temp Stats Airport Information Weather charts Add Link Nearby VenuesMetar ALERT Operation Metar Decoded Social comments